createdAt,value
2023-05-14T00:14:02.177Z,331
2023-05-14T00:34:02.108Z,332
2023-05-14T00:54:02.242Z,335
2023-05-14T01:14:02.262Z,330
2023-05-14T01:54:02.361Z,329
2023-05-14T02:14:02.374Z,329
2023-05-14T02:34:02.400Z,327
2023-05-14T02:54:02.428Z,327
2023-05-14T03:14:02.271Z,326
2023-05-14T03:34:02.500Z,322
2023-05-14T03:54:02.543Z,321
2023-05-14T04:14:02.596Z,323
2023-05-14T04:34:02.604Z,323
2023-05-14T04:54:02.685Z,325
2023-05-14T05:14:02.686Z,330
2023-05-14T05:34:02.629Z,334
2023-05-14T05:54:02.748Z,337
2023-05-14T06:14:02.815Z,343
2023-05-14T06:34:02.663Z,348
2023-05-14T06:54:02.880Z,351
2023-05-14T07:14:02.904Z,350
2023-05-14T07:34:02.937Z,354
2023-05-14T07:54:02.992Z,346
2023-05-14T08:14:02.973Z,353
2023-05-14T08:34:02.903Z,351
2023-05-14T08:54:02.911Z,352
2023-05-14T09:14:02.970Z,352
2023-05-14T09:34:03.004Z,351
2023-05-14T09:54:03.031Z,347
2023-05-14T10:14:03.004Z,344
2023-05-14T10:34:03.042Z,346
2023-05-14T10:54:03.091Z,346
2023-05-14T11:14:03.206Z,335
2023-05-14T11:34:03.092Z,346
2023-05-14T11:54:03.125Z,341
2023-05-14T12:14:03.039Z,341
2023-05-14T12:34:03.158Z,334
2023-05-14T13:14:03.203Z,335
2023-05-14T13:34:03.189Z,338
2023-05-14T13:54:03.233Z,334
2023-05-14T14:14:03.226Z,331
2023-05-14T14:34:03.237Z,327
2023-05-14T14:54:03.158Z,327
2023-05-14T15:14:03.287Z,330
2023-05-14T15:34:03.296Z,334
2023-05-14T15:54:03.314Z,327
2023-05-14T16:14:03.342Z,325
2023-05-14T16:34:03.335Z,326
2023-05-14T16:54:03.241Z,324
2023-05-14T17:14:03.377Z,326
2023-05-14T17:34:03.414Z,324
2023-05-14T17:54:03.401Z,326
2023-05-14T18:34:03.462Z,327
2023-05-14T18:54:03.454Z,329
2023-05-14T19:14:03.526Z,323
2023-05-14T19:34:03.440Z,324
2023-05-14T19:54:03.681Z,322
2023-05-14T20:14:03.671Z,324
2023-05-14T20:34:03.605Z,325
2023-05-14T20:54:03.547Z,326
2023-05-14T21:14:03.752Z,324
2023-05-14T21:34:03.671Z,326
2023-05-14T21:54:03.792Z,326
2023-05-14T22:14:03.836Z,324
2023-05-14T22:34:03.873Z,323
2023-05-14T22:54:03.879Z,320
2023-05-14T23:14:03.921Z,321
2023-05-14T23:34:03.960Z,318
2023-05-14T23:54:03.977Z,318
